Time;durP1;ratioP1;P1;durP2;ratioP2;P2;SDS_P1;SDS_P2;PMS_P1;PMS_P2;Temp;Humidity;BMP_temperature;BMP_pressure;BME280_temperature;BME280_humidity;BME280_pressure;Samples;Min_cycle;Max_cycle;Signal;HPM_P1;HPM_P2
2022/02/12 00:00:39;;;;;;;19.60;6.15;;;3.70;99.90;;;;;;5055743;28;20024;-87
2022/02/12 00:03:05;;;;;;;22.73;7.82;;;3.70;99.90;;;;;;5072998;28;20021;-88
2022/02/12 00:05:31;;;;;;;22.38;6.35;;;3.70;99.90;;;;;;5055641;28;20036;-88
2022/02/12 00:07:58;;;;;;;24.50;6.32;;;3.70;99.90;;;;;;5054568;28;20055;-88
2022/02/12 00:10:26;;;;;;;24.77;6.13;;;3.60;99.90;;;;;;5055512;28;20479;-88
2022/02/12 00:12:52;;;;;;;27.05;5.75;;;3.60;99.90;;;;;;5055531;28;20029;-88
2022/02/12 00:15:19;;;;;;;19.83;6.40;;;3.60;99.90;;;;;;5055556;28;20024;-88
2022/02/12 00:17:46;;;;;;;23.52;7.30;;;3.50;99.90;;;;;;5073689;28;20028;-88
2022/02/12 00:20:13;;;;;;;18.38;5.80;;;3.50;99.90;;;;;;5055575;28;20189;-88
2022/02/12 00:22:39;;;;;;;18.70;5.60;;;3.50;99.90;;;;;;5056035;28;20043;-88
2022/02/12 00:25:05;;;;;;;19.23;6.47;;;3.40;99.90;;;;;;5055665;28;20023;-87
2022/02/12 00:27:31;;;;;;;19.80;6.45;;;3.40;99.90;;;;;;5022652;28;20031;-88
2022/02/12 00:29:57;;;;;;;15.52;5.40;;;3.40;99.90;;;;;;5055556;28;20028;-88
2022/02/12 00:32:23;;;;;;;16.58;5.15;;;3.40;99.90;;;;;;5059635;28;20051;-87
2022/02/12 00:34:49;;;;;;;18.27;6.15;;;3.40;99.90;;;;;;5059287;28;20035;-89
2022/02/12 00:37:15;;;;;;;15.02;5.40;;;3.30;99.90;;;;;;5077301;28;20099;-88
2022/02/12 00:39:41;;;;;;;17.83;5.32;;;3.30;99.90;;;;;;5059124;28;20112;-88
2022/02/12 00:42:08;;;;;;;14.38;5.28;;;3.30;99.90;;;;;;5042366;28;20044;-88
2022/02/12 00:44:34;;;;;;;19.20;6.18;;;3.20;99.90;;;;;;5059075;28;20487;-87
2022/02/12 00:47:02;;;;;;;19.55;5.85;;;3.20;99.90;;;;;;5059245;28;20039;-88
2022/02/12 00:49:30;;;;;;;15.35;5.90;;;3.20;99.90;;;;;;5043288;28;20020;-88
2022/02/12 00:51:55;;;;;;;21.25;6.22;;;3.20;99.90;;;;;;5059167;28;20032;-88
2022/02/12 00:54:24;;;;;;;19.38;6.30;;;3.20;99.90;;;;;;5043232;28;20138;-88
2022/02/12 00:56:50;;;;;;;19.15;6.50;;;3.10;99.90;;;;;;5059725;28;20526;-88
2022/02/12 00:59:16;;;;;;;19.77;6.32;;;3.10;99.90;;;;;;5060009;28;20028;-88
2022/02/12 01:01:42;;;;;;;23.33;7.15;;;3.10;99.90;;;;;;5060043;28;20174;-88
2022/02/12 01:04:07;;;;;;;18.10;5.85;;;3.10;99.90;;;;;;5059801;28;20031;-88
2022/02/12 01:06:33;;;;;;;23.35;6.70;;;3.10;99.90;;;;;;5059481;28;20484;-88
2022/02/12 01:09:00;;;;;;;19.95;5.70;;;3.10;99.90;;;;;;5059248;28;20013;-88
2022/02/12 01:11:31;;;;;;;21.13;7.47;;;3.00;99.90;;;;;;5060097;28;20029;-88
2022/02/12 01:13:57;;;;;;;21.85;7.28;;;3.00;99.90;;;;;;5079725;28;20032;-90
2022/02/12 01:16:25;;;;;;;25.83;6.97;;;3.00;99.90;;;;;;5081718;28;20043;-88
2022/02/12 01:18:51;;;;;;;20.77;6.75;;;3.00;99.90;;;;;;5100045;28;20009;-88
2022/02/12 01:21:17;;;;;;;24.30;7.85;;;3.00;99.90;;;;;;5082456;28;20074;-88
2022/02/12 01:23:44;;;;;;;20.17;7.20;;;3.00;99.90;;;;;;5081145;28;20024;-87
2022/02/12 01:26:10;;;;;;;23.30;7.93;;;2.90;99.90;;;;;;5079754;28;20016;-89
2022/02/12 01:28:36;;;;;;;19.70;7.40;;;2.90;99.90;;;;;;5070904;28;20020;-88
2022/02/12 01:31:02;;;;;;;28.35;7.30;;;2.90;99.90;;;;;;5063727;28;20029;-88
2022/02/12 01:33:28;;;;;;;21.23;7.55;;;2.90;99.90;;;;;;5042779;28;20107;-88
2022/02/12 01:35:53;;;;;;;22.85;7.47;;;2.90;99.90;;;;;;5059292;28;20024;-88
2022/02/12 01:38:21;;;;;;;19.02;6.80;;;2.90;99.90;;;;;;5058549;28;20052;-88
2022/02/12 01:40:48;;;;;;;27.58;7.43;;;2.80;99.90;;;;;;5052098;28;20400;-88
2022/02/12 01:43:17;;;;;;;23.92;7.90;;;2.80;99.90;;;;;;5055390;28;20024;-88
2022/02/12 01:45:43;;;;;;;23.30;8.45;;;2.80;99.90;;;;;;5057146;28;20469;-88
2022/02/12 01:48:11;;;;;;;22.95;7.43;;;2.80;99.90;;;;;;5038857;28;20064;-88
2022/02/12 01:50:37;;;;;;;21.30;8.27;;;2.80;99.90;;;;;;5055980;28;20050;-88
2022/02/12 01:53:03;;;;;;;23.55;7.55;;;2.70;99.90;;;;;;5056566;28;20412;-88
2022/02/12 01:55:28;;;;;;;21.90;7.63;;;2.70;99.90;;;;;;5038488;28;20032;-87
2022/02/12 01:57:54;;;;;;;16.55;7.15;;;2.70;99.90;;;;;;5038575;28;20032;-88
2022/02/12 02:00:22;;;;;;;24.10;7.82;;;2.70;99.90;;;;;;5038188;28;20104;-87
2022/02/12 02:02:48;;;;;;;21.90;7.95;;;2.70;99.90;;;;;;5039831;28;20025;-88
2022/02/12 02:05:15;;;;;;;16.45;7.50;;;2.60;99.90;;;;;;5038174;28;20485;-88
2022/02/12 02:07:43;;;;;;;23.00;6.93;;;2.60;99.90;;;;;;5044487;28;20021;-88
2022/02/12 02:10:10;;;;;;;24.60;8.02;;;2.60;99.90;;;;;;5057789;28;20032;-88
2022/02/12 02:12:36;;;;;;;21.05;6.13;;;2.60;99.90;;;;;;5040864;28;20043;-88
2022/02/12 02:15:03;;;;;;;22.35;7.35;;;2.50;99.90;;;;;;5040965;28;20379;-88
2022/02/12 02:17:29;;;;;;;21.17;7.40;;;2.50;99.90;;;;;;5057697;28;20024;-87
2022/02/12 02:19:55;;;;;;;21.73;8.20;;;2.40;99.90;;;;;;5058228;28;20096;-87
2022/02/12 02:22:25;;;;;;;21.98;6.93;;;2.50;99.90;;;;;;5058649;28;20033;-88
2022/02/12 02:24:51;;;;;;;16.27;6.35;;;2.40;99.90;;;;;;5058701;28;20012;-87
2022/02/12 02:27:19;;;;;;;26.23;7.45;;;2.40;99.90;;;;;;5058576;28;20024;-88
2022/02/12 02:29:45;;;;;;;19.58;7.30;;;2.40;99.90;;;;;;5060036;28;20046;-87
2022/02/12 02:32:12;;;;;;;18.83;7.18;;;2.40;99.90;;;;;;5058530;28;20028;-87
2022/02/12 02:34:52;;;;;;;16.60;7.53;;;2.40;99.90;;;;;;5058816;28;20020;-87
2022/02/12 02:37:19;;;;;;;20.48;7.15;;;2.30;99.90;;;;;;5058174;28;20465;-87
2022/02/12 02:39:48;;;;;;;17.52;6.60;;;2.30;99.90;;;;;;5058482;28;20024;-87
2022/02/12 02:42:15;;;;;;;17.58;6.53;;;2.30;99.90;;;;;;5058528;28;20036;-88
2022/02/12 02:44:40;;;;;;;14.52;6.13;;;2.30;99.90;;;;;;5058516;28;20052;-88
2022/02/12 02:49:52;;;;;;;19.23;7.28;;;2.30;99.90;;;;;;5076513;28;20385;-87
2022/02/12 02:57:47;;;;;;;20.48;6.88;;;2.20;99.90;;;;;;5076269;28;20024;-87
2022/02/12 03:00:14;;;;;;;15.68;6.50;;;2.20;99.90;;;;;;5058246;28;20028;-88
2022/02/12 03:02:39;;;;;;;15.65;6.88;;;2.20;99.90;;;;;;5041477;28;20035;-89
2022/02/12 03:05:05;;;;;;;23.33;7.60;;;2.10;99.90;;;;;;5044653;28;20029;-88
2022/02/12 03:07:31;;;;;;;20.75;7.47;;;2.20;99.90;;;;;;5070917;28;20035;-87
2022/02/12 03:09:57;;;;;;;15.73;7.50;;;2.20;99.90;;;;;;5072869;28;20020;-87
2022/02/12 03:12:23;;;;;;;18.90;7.55;;;2.20;99.90;;;;;;5056441;28;20396;-87
2022/02/12 03:14:48;;;;;;;17.70;6.72;;;2.10;99.90;;;;;;5073017;28;20035;-89
2022/02/12 03:17:14;;;;;;;15.80;6.75;;;2.10;99.90;;;;;;5079995;28;20035;-89
2022/02/12 03:19:40;;;;;;;19.50;7.63;;;2.10;99.90;;;;;;5079827;28;20032;-88
2022/02/12 03:22:06;;;;;;;19.08;7.15;;;2.00;99.90;;;;;;5063618;28;20009;-89
2022/02/12 03:24:31;;;;;;;18.52;6.90;;;2.10;99.90;;;;;;5063647;28;20019;-89
2022/02/12 03:26:57;;;;;;;17.40;6.95;;;2.00;99.90;;;;;;5079742;28;20013;-89
2022/02/12 03:29:23;;;;;;;20.15;6.22;;;2.00;99.90;;;;;;5063546;28;20024;-88
2022/02/12 03:31:51;;;;;;;18.77;6.80;;;2.00;99.90;;;;;;5079784;28;20029;-88
2022/02/12 03:34:17;;;;;;;17.85;7.35;;;2.00;99.90;;;;;;5079386;28;20052;-87
2022/02/12 03:36:42;;;;;;;15.85;6.00;;;2.00;99.90;;;;;;5079950;28;20046;-88
2022/02/12 03:39:08;;;;;;;19.00;7.15;;;1.90;99.90;;;;;;5062618;28;20028;-91
2022/02/12 03:41:34;;;;;;;29.98;8.75;;;1.90;99.90;;;;;;5067369;28;20024;-88
2022/02/12 03:44:02;;;;;;;21.83;8.15;;;1.90;99.90;;;;;;5062820;28;20025;-87
2022/02/12 03:46:30;;;;;;;19.48;7.30;;;1.90;99.90;;;;;;5080019;28;20027;-87
2022/02/12 03:48:56;;;;;;;22.13;7.30;;;1.90;99.90;;;;;;5045421;28;20436;-87
2022/02/12 03:51:22;;;;;;;13.63;6.72;;;1.90;99.90;;;;;;5080095;28;20024;-86
2022/02/12 03:53:49;;;;;;;16.67;7.22;;;1.80;99.90;;;;;;5079699;28;20170;-87
2022/02/12 03:56:15;;;;;;;17.05;7.18;;;1.80;99.90;;;;;;5062004;28;20032;-87
2022/02/12 03:58:41;;;;;;;14.73;6.70;;;1.80;99.90;;;;;;5062074;28;20092;-87
2022/02/12 04:01:07;;;;;;;20.33;7.18;;;1.80;99.90;;;;;;5060658;28;20067;-87
2022/02/12 04:03:33;;;;;;;20.17;6.78;;;1.80;99.90;;;;;;5068588;28;20029;-87
2022/02/12 04:05:58;;;;;;;16.77;6.55;;;1.80;99.90;;;;;;5074642;28;20016;-88
2022/02/12 04:08:25;;;;;;;17.00;6.80;;;1.70;99.90;;;;;;5083415;28;20088;-88
2022/02/12 04:10:52;;;;;;;18.17;6.70;;;1.80;99.90;;;;;;5083117;28;20036;-88
2022/02/12 04:13:20;;;;;;;16.95;6.78;;;1.80;99.90;;;;;;5101655;28;20032;-88
2022/02/12 04:15:47;;;;;;;21.48;6.50;;;1.80;99.90;;;;;;5084197;28;20009;-88
2022/02/12 04:18:13;;;;;;;18.23;6.70;;;1.70;99.90;;;;;;5084339;28;20020;-90
2022/02/12 04:20:43;;;;;;;20.40;6.35;;;1.70;99.90;;;;;;5101386;28;20027;-88
2022/02/12 04:23:09;;;;;;;16.40;5.82;;;1.80;99.90;;;;;;5084120;28;20072;-86
2022/02/12 04:25:35;;;;;;;14.80;6.60;;;1.70;99.90;;;;;;5101030;28;20039;-89
2022/02/12 04:28:08;;;;;;;12.75;6.35;;;1.70;99.90;;;;;;5100876;28;20037;-86
2022/02/12 04:30:37;;;;;;;21.25;6.88;;;1.70;99.90;;;;;;5083316;28;20025;-86
2022/02/12 04:33:04;;;;;;;14.77;6.22;;;1.70;99.90;;;;;;5101066;28;20009;-88
2022/02/12 04:35:30;;;;;;;21.00;6.68;;;1.70;99.90;;;;;;5076327;28;20028;-85
2022/02/12 04:37:56;;;;;;;25.42;6.97;;;1.60;99.90;;;;;;5064502;28;20032;-85
2022/02/12 04:40:21;;;;;;;12.18;5.75;;;1.60;99.90;;;;;;5045951;28;20032;-85
2022/02/12 04:42:47;;;;;;;21.45;6.60;;;1.60;99.90;;;;;;5062605;28;20029;-85
2022/02/12 04:45:13;;;;;;;21.13;6.55;;;1.60;99.90;;;;;;5059868;28;20489;-87
2022/02/12 04:47:43;;;;;;;14.27;6.13;;;1.50;99.90;;;;;;5061714;28;20025;-87
2022/02/12 04:50:09;;;;;;;13.20;6.18;;;1.50;99.90;;;;;;5063099;28;20090;-87
2022/02/12 04:52:36;;;;;;;14.00;6.40;;;1.50;99.90;;;;;;5062038;28;20032;-87
2022/02/12 04:55:03;;;;;;;16.92;5.32;;;1.50;99.90;;;;;;5045359;28;20028;-87
2022/02/12 04:57:29;;;;;;;18.88;6.40;;;1.50;99.90;;;;;;5069215;28;20032;-87
2022/02/12 04:59:54;;;;;;;13.82;5.55;;;1.50;99.90;;;;;;5081394;28;20457;-86
2022/02/12 05:02:20;;;;;;;21.92;6.20;;;1.50;99.90;;;;;;5098173;28;20405;-87
2022/02/12 05:04:45;;;;;;;18.02;6.13;;;1.40;99.90;;;;;;5057741;28;20025;-86
2022/02/12 05:07:11;;;;;;;17.60;5.75;;;1.50;99.90;;;;;;5064979;28;20025;-86
2022/02/12 05:09:38;;;;;;;17.05;6.45;;;1.50;99.90;;;;;;5078028;28;20043;-86
2022/02/12 05:12:07;;;;;;;17.73;6.00;;;1.50;99.90;;;;;;5070139;28;20028;-86
2022/02/12 05:14:35;;;;;;;21.98;5.38;;;1.40;99.90;;;;;;5062289;28;20052;-86
2022/02/12 05:17:02;;;;;;;21.95;5.97;;;1.40;99.90;;;;;;5059531;28;20025;-86
2022/02/12 05:19:28;;;;;;;17.50;5.30;;;1.40;99.90;;;;;;5058859;28;20024;-86
2022/02/12 05:21:55;;;;;;;20.08;5.53;;;1.40;99.90;;;;;;5059341;28;20435;-86
2022/02/12 05:24:21;;;;;;;14.02;4.88;;;1.50;99.90;;;;;;5043589;28;20059;-87
2022/02/12 05:26:46;;;;;;;19.48;5.63;;;1.40;99.90;;;;;;5060393;28;20020;-86
2022/02/12 05:29:12;;;;;;;14.65;4.93;;;1.40;99.90;;;;;;5041794;28;20508;-86
2022/02/12 05:31:38;;;;;;;19.70;5.03;;;1.40;99.90;;;;;;5058751;28;20021;-86
2022/02/12 05:34:04;;;;;;;21.23;5.93;;;1.30;99.90;;;;;;5058480;28;20021;-86
2022/02/12 05:36:29;;;;;;;15.40;6.03;;;1.30;99.90;;;;;;5077470;28;20186;-86
2022/02/12 05:38:55;;;;;;;13.43;5.85;;;1.30;99.90;;;;;;5058787;28;20021;-86
2022/02/12 05:41:22;;;;;;;17.77;5.90;;;1.30;99.90;;;;;;5058443;28;20028;-87
2022/02/12 05:43:48;;;;;;;20.10;6.57;;;1.30;99.90;;;;;;5041112;28;20029;-86
2022/02/12 05:46:14;;;;;;;18.85;6.80;;;1.30;99.90;;;;;;5041660;28;20064;-86
2022/02/12 05:48:40;;;;;;;26.00;7.13;;;1.40;99.90;;;;;;5058274;28;20484;-86
2022/02/12 05:51:06;;;;;;;14.77;6.30;;;1.40;99.90;;;;;;5058035;28;20020;-86
2022/02/12 05:53:33;;;;;;;24.60;6.95;;;1.30;99.90;;;;;;5058445;28;20029;-86
2022/02/12 05:55:58;;;;;;;18.83;6.03;;;1.40;99.90;;;;;;5058185;28;20191;-86
2022/02/12 05:58:25;;;;;;;19.60;6.78;;;1.40;99.90;;;;;;5041269;28;20096;-86
2022/02/12 06:00:50;;;;;;;20.20;8.32;;;1.40;99.90;;;;;;5075896;28;20098;-85
2022/02/12 06:03:18;;;;;;;15.40;6.05;;;1.40;99.90;;;;;;5057850;28;20461;-86
2022/02/12 06:05:45;;;;;;;16.02;6.30;;;1.40;99.90;;;;;;5041159;28;20381;-87
2022/02/12 06:08:14;;;;;;;19.17;6.43;;;1.30;99.90;;;;;;5057828;28;20519;-86
2022/02/12 06:10:39;;;;;;;19.52;6.25;;;1.30;99.90;;;;;;5041816;28;20483;-87
2022/02/12 06:13:05;;;;;;;20.48;6.80;;;1.20;99.90;;;;;;5057820;28;20037;-86
2022/02/12 06:15:35;;;;;;;18.40;6.22;;;1.20;99.90;;;;;;5041281;28;20020;-86
2022/02/12 06:18:04;;;;;;;14.10;5.88;;;1.20;99.90;;;;;;5058773;28;20028;-86
2022/02/12 06:20:30;;;;;;;25.15;7.18;;;1.20;99.90;;;;;;5057335;28;20029;-87
2022/02/12 06:22:56;;;;;;;20.75;6.20;;;1.20;99.90;;;;;;5057493;28;20189;-87
2022/02/12 06:25:22;;;;;;;15.93;6.03;;;1.20;99.90;;;;;;5040828;28;20063;-86
2022/02/12 06:27:48;;;;;;;21.30;6.93;;;1.20;99.90;;;;;;5039916;28;20025;-86
2022/02/12 06:30:13;;;;;;;18.48;6.28;;;1.20;99.90;;;;;;5055880;28;20377;-87
2022/02/12 06:32:39;;;;;;;26.08;7.47;;;1.20;99.90;;;;;;5020917;28;20029;-86
2022/02/12 06:35:05;;;;;;;15.40;5.95;;;1.20;99.90;;;;;;5020628;28;20329;-86
2022/02/12 06:37:31;;;;;;;16.25;6.38;;;1.20;99.90;;;;;;5055075;28;20438;-86
2022/02/12 06:39:57;;;;;;;14.65;5.35;;;1.10;99.90;;;;;;5037352;28;20021;-86
2022/02/12 06:42:24;;;;;;;19.80;6.40;;;1.10;99.90;;;;;;5037362;28;20373;-86
2022/02/12 06:44:50;;;;;;;11.68;5.15;;;1.10;99.90;;;;;;5054607;28;20045;-86
2022/02/12 06:47:15;;;;;;;20.70;6.65;;;1.10;99.90;;;;;;5037491;28;20033;-86
2022/02/12 06:49:41;;;;;;;23.10;8.27;;;1.20;99.90;;;;;;5036856;28;20334;-87
2022/02/12 06:52:07;;;;;;;22.00;6.28;;;1.10;99.90;;;;;;5020992;28;20029;-86
2022/02/12 06:54:33;;;;;;;17.58;5.07;;;1.20;99.90;;;;;;5036857;28;20033;-86
2022/02/12 06:56:59;;;;;;;14.70;5.53;;;1.20;99.90;;;;;;5020552;28;20116;-86
2022/02/12 06:59:25;;;;;;;16.02;4.90;;;1.20;99.90;;;;;;5036680;28;20088;-86
2022/02/12 07:01:51;;;;;;;18.02;5.13;;;1.20;99.90;;;;;;5037019;28;20029;-86
2022/02/12 07:04:17;;;;;;;19.23;5.88;;;1.20;99.90;;;;;;5036856;28;20147;-86
2022/02/12 07:06:43;;;;;;;16.55;6.15;;;1.20;99.90;;;;;;5036715;28;20069;-86
2022/02/12 07:09:11;;;;;;;19.65;7.18;;;1.20;99.90;;;;;;5036883;28;20025;-86
2022/02/12 07:11:37;;;;;;;19.95;7.20;;;1.20;99.90;;;;;;5036603;28;20040;-86
2022/02/12 07:14:02;;;;;;;15.43;6.60;;;1.30;99.90;;;;;;5039656;28;20679;-86
2022/02/12 07:16:28;;;;;;;20.25;6.75;;;1.20;99.90;;;;;;5076039;28;20021;-86
2022/02/12 07:18:54;;;;;;;18.38;5.93;;;1.20;99.90;;;;;;5042323;28;20115;-87
2022/02/12 07:21:20;;;;;;;14.27;6.10;;;1.20;99.90;;;;;;5057883;28;20127;-86
2022/02/12 07:23:47;;;;;;;21.38;6.30;;;1.20;99.90;;;;;;5051926;28;20021;-86
2022/02/12 07:26:13;;;;;;;19.05;5.78;;;1.20;99.90;;;;;;5021848;28;20527;-86
2022/02/12 07:28:42;;;;;;;19.42;5.82;;;1.20;99.90;;;;;;5021441;28;20037;-86
2022/02/12 07:31:18;;;;;;;16.58;6.75;;;1.20;99.90;;;;;;5038714;28;20056;-86
2022/02/12 07:33:45;;;;;;;16.05;5.15;;;1.20;99.90;;;;;;5020970;28;20021;-86
2022/02/12 07:36:11;;;;;;;17.83;5.32;;;1.30;99.90;;;;;;5036788;28;20042;-86
2022/02/12 07:38:38;;;;;;;14.48;5.53;;;1.20;99.90;;;;;;5037393;28;20025;-86
2022/02/12 07:41:03;;;;;;;18.90;5.75;;;1.20;99.90;;;;;;5021280;28;20447;-86
2022/02/12 07:43:29;;;;;;;24.20;5.43;;;1.20;99.90;;;;;;5037748;28;20118;-86
2022/02/12 07:45:59;;;;;;;14.48;5.05;;;1.20;99.90;;;;;;5036550;28;20052;-86
2022/02/12 07:48:25;;;;;;;15.48;5.15;;;1.20;99.90;;;;;;5022542;28;20033;-86
2022/02/12 07:50:53;;;;;;;17.05;6.55;;;1.20;99.90;;;;;;5037438;28;20068;-86
2022/02/12 07:53:19;;;;;;;18.83;5.10;;;1.20;99.90;;;;;;5036854;28;20111;-86
2022/02/12 07:55:45;;;;;;;17.33;4.93;;;1.20;99.90;;;;;;5019767;28;20442;-86
2022/02/12 07:58:10;;;;;;;19.02;6.10;;;1.30;99.90;;;;;;5055771;28;20025;-86
2022/02/12 08:00:36;;;;;;;13.77;4.72;;;1.20;99.90;;;;;;5072983;28;20017;-88
2022/02/12 08:03:03;;;;;;;10.85;4.43;;;1.30;99.90;;;;;;5054183;28;20031;-86
2022/02/12 08:05:29;;;;;;;13.82;4.45;;;1.30;99.90;;;;;;5057712;28;20052;-86
2022/02/12 08:07:55;;;;;;;20.30;5.15;;;1.30;99.90;;;;;;5024796;28;20028;-87
2022/02/12 08:13:05;;;;;;;16.55;4.97;;;1.40;99.90;;;;;;5046486;28;20090;-86
2022/02/12 08:15:31;;;;;;;16.02;5.20;;;1.40;99.90;;;;;;5058221;28;20029;-87
2022/02/12 08:17:57;;;;;;;17.58;5.10;;;1.40;99.90;;;;;;5043849;28;20009;-87
2022/02/12 08:20:24;;;;;;;16.08;5.28;;;1.50;99.90;;;;;;5058779;28;20461;-87
2022/02/12 08:22:51;;;;;;;17.85;4.60;;;1.50;99.90;;;;;;5056984;28;20039;-88
2022/02/12 08:25:20;;;;;;;19.92;5.28;;;1.60;99.90;;;;;;5055857;28;20115;-88
2022/02/12 08:27:46;;;;;;;18.17;4.68;;;1.60;99.90;;;;;;5056175;28;20036;-88
2022/02/12 08:30:15;;;;;;;15.07;4.95;;;1.70;99.90;;;;;;5039571;28;20033;-88
2022/02/12 08:32:41;;;;;;;14.15;5.07;;;1.70;99.90;;;;;;5056299;28;20036;-88
2022/02/12 08:35:10;;;;;;;14.10;4.40;;;1.80;99.90;;;;;;5056624;28;20052;-87
2022/02/12 08:37:40;;;;;;;13.35;4.30;;;1.80;99.90;;;;;;5056365;28;20055;-88
2022/02/12 08:40:11;;;;;;;16.48;4.50;;;1.80;99.90;;;;;;5048679;28;20025;-89
2022/02/12 08:42:37;;;;;;;15.05;4.88;;;1.90;99.90;;;;;;5092217;28;20044;-88
2022/02/12 08:45:04;;;;;;;15.10;4.82;;;1.90;99.90;;;;;;5079665;28;20062;-88
2022/02/12 08:47:33;;;;;;;13.35;4.90;;;2.00;99.90;;;;;;5078164;28;20059;-89
2022/02/12 08:49:59;;;;;;;15.68;4.35;;;2.00;99.90;;;;;;5069784;28;20032;-88
2022/02/12 08:52:25;;;;;;;13.13;4.55;;;2.00;99.90;;;;;;5044875;28;20041;-89
2022/02/12 08:54:52;;;;;;;13.10;3.75;;;2.10;99.90;;;;;;5056924;28;20033;-88
2022/02/12 08:57:18;;;;;;;13.82;3.80;;;2.10;99.90;;;;;;5071057;28;20025;-88
2022/02/12 08:59:46;;;;;;;12.90;4.15;;;2.10;99.90;;;;;;5053885;28;20029;-90
2022/02/12 09:02:13;;;;;;;14.80;4.47;;;2.20;99.90;;;;;;5039767;28;20066;-90
2022/02/12 09:04:40;;;;;;;11.60;3.97;;;2.20;99.90;;;;;;5047554;28;20051;-90
2022/02/12 09:07:06;;;;;;;16.65;4.40;;;2.30;99.90;;;;;;5049826;28;20088;-90
2022/02/12 09:09:32;;;;;;;15.90;3.70;;;2.30;99.90;;;;;;5058370;28;20021;-88
2022/02/12 09:11:58;;;;;;;12.32;4.20;;;2.30;99.90;;;;;;5056129;28;20044;-88
2022/02/12 09:14:24;;;;;;;13.23;4.45;;;2.40;99.90;;;;;;5038358;28;20388;-88
2022/02/12 09:16:50;;;;;;;15.68;4.28;;;2.40;99.90;;;;;;5050221;28;20095;-88
2022/02/12 09:19:16;;;;;;;12.45;4.10;;;2.50;99.90;;;;;;5047937;28;20025;-88
2022/02/12 09:21:42;;;;;;;17.58;5.85;;;2.60;99.90;;;;;;5055861;28;20445;-88
2022/02/12 09:24:08;;;;;;;16.48;4.47;;;2.60;99.90;;;;;;5050408;28;20079;-87
2022/02/12 09:26:33;;;;;;;10.85;4.45;;;2.70;99.90;;;;;;5055237;28;20021;-87
2022/02/12 09:29:02;;;;;;;18.17;3.55;;;2.70;99.90;;;;;;5051921;28;20020;-87
2022/02/12 09:31:27;;;;;;;17.13;4.10;;;2.80;99.90;;;;;;5069213;28;20023;-88
2022/02/12 09:33:58;;;;;;;15.40;3.92;;;2.90;99.90;;;;;;5055022;28;20129;-88
2022/02/12 09:36:24;;;;;;;15.48;3.60;;;3.00;99.90;;;;;;5038924;28;20037;-87
2022/02/12 09:38:50;;;;;;;14.25;3.42;;;3.00;99.90;;;;;;5038616;28;20359;-88
2022/02/12 09:41:32;;;;;;;;;;;;;;;;;;;;;
2022/02/12 09:43:58;;;;;;;16.70;3.63;;;3.20;99.90;;;;;;5056033;28;20033;-88
2022/02/12 09:46:58;;;;;;;13.65;3.58;;;3.30;99.90;;;;;;5021638;28;20136;-87
2022/02/12 09:49:24;;;;;;;12.20;3.10;;;3.30;99.90;;;;;;5038559;28;20071;-87
2022/02/12 09:51:52;;;;;;;11.07;3.00;;;3.40;99.90;;;;;;5005331;28;20092;-88
2022/02/12 09:54:18;;;;;;;9.93;3.78;;;3.50;99.90;;;;;;5037939;28;20033;-87
2022/02/12 09:56:45;;;;;;;12.98;3.28;;;3.60;99.90;;;;;;5038077;28;20055;-88
2022/02/12 09:59:13;;;;;;;13.93;3.13;;;3.60;99.90;;;;;;5005304;28;20099;-88
2022/02/12 10:01:40;;;;;;;10.75;2.90;;;3.70;99.90;;;;;;5038079;28;20033;-87
2022/02/12 10:04:26;;;;;;;21.70;4.85;;;3.80;99.90;;;;;;5053947;28;20025;-87
2022/02/12 10:06:51;;;;;;;10.60;3.15;;;3.90;99.90;;;;;;5037404;28;20122;-86
2022/02/12 10:09:20;;;;;;;12.77;3.13;;;3.90;99.90;;;;;;5037776;28;20108;-88
2022/02/12 10:11:50;;;;;;;12.45;3.75;;;4.00;99.90;;;;;;5045384;28;20025;-87
2022/02/12 10:14:19;;;;;;;10.55;2.97;;;4.20;99.90;;;;;;5071218;28;20107;-91
2022/02/12 10:16:56;;;;;;;10.70;2.88;;;4.20;99.90;;;;;;5052279;28;20013;-89
2022/02/12 10:19:36;;;;;;;9.40;3.20;;;4.30;99.90;;;;;;5051623;28;20031;-89
2022/02/12 10:22:08;;;;;;;10.40;3.08;;;4.40;99.90;;;;;;5065782;28;20035;-89
2022/02/12 10:24:52;;;;;;;13.93;3.72;;;4.50;99.90;;;;;;5052336;28;20017;-87
2022/02/12 10:27:20;;;;;;;13.23;3.25;;;4.60;99.90;;;;;;5046699;28;20082;-86
2022/02/12 10:29:47;;;;;;;16.85;3.35;;;4.70;99.90;;;;;;5050642;28;20020;-88
2022/02/12 10:32:17;;;;;;;14.00;3.53;;;4.80;99.90;;;;;;5037095;28;20039;-87
2022/02/12 10:34:43;;;;;;;13.55;3.63;;;4.90;99.90;;;;;;5037562;28;20117;-88
2022/02/12 10:37:11;;;;;;;12.70;3.20;;;5.00;99.90;;;;;;5037134;28;20127;-89
2022/02/12 10:39:49;;;;;;;7.90;2.63;;;5.10;99.90;;;;;;5037159;28;20025;-88
2022/02/12 10:42:17;;;;;;;15.10;2.85;;;5.20;99.90;;;;;;5036982;28;20060;-87
2022/02/12 10:44:44;;;;;;;10.55;3.22;;;5.30;99.90;;;;;;5052546;28;20063;-87
2022/02/12 10:47:13;;;;;;;11.27;2.92;;;5.40;99.90;;;;;;5023368;28;20032;-88
2022/02/12 10:49:42;;;;;;;13.63;3.05;;;5.50;99.90;;;;;;5074884;28;20029;-91
2022/02/12 10:52:08;;;;;;;9.57;3.20;;;5.50;99.90;;;;;;5056865;28;20028;-87
2022/02/12 10:54:47;;;;;;;7.35;2.35;;;5.60;99.90;;;;;;5055036;28;20028;-87
2022/02/12 10:57:17;;;;;;;11.63;3.05;;;5.70;99.90;;;;;;5064191;28;20024;-92
2022/02/12 10:59:45;;;;;;;16.95;3.33;;;5.70;99.90;;;;;;5054527;28;20059;-89
2022/02/12 11:02:18;;;;;;;11.38;2.60;;;5.80;99.90;;;;;;5055148;28;20491;-88
2022/02/12 11:04:47;;;;;;;10.70;3.40;;;5.80;99.90;;;;;;5054862;28;20032;-87
2022/02/12 11:07:16;;;;;;;13.10;2.90;;;5.90;99.90;;;;;;5055845;28;20184;-87
2022/02/12 11:09:44;;;;;;;15.52;3.28;;;5.90;99.90;;;;;;5056582;28;20017;-89
2022/02/12 11:12:10;;;;;;;11.93;3.00;;;5.90;99.90;;;;;;5056072;28;20465;-87
2022/02/12 11:14:37;;;;;;;12.73;2.88;;;5.90;99.90;;;;;;5054439;28;20461;-87
2022/02/12 11:17:13;;;;;;;10.80;2.90;;;6.00;99.90;;;;;;5056245;28;20028;-88
2022/02/12 11:19:39;;;;;;;13.25;3.22;;;6.10;99.90;;;;;;5056061;28;20154;-88
2022/02/12 11:22:09;;;;;;;13.85;3.00;;;6.10;99.90;;;;;;5056230;28;20385;-87
2022/02/12 11:24:35;;;;;;;10.85;2.85;;;6.20;99.90;;;;;;5074491;28;20025;-87
2022/02/12 11:27:32;;;;;;;11.15;3.00;;;6.30;99.90;;;;;;5055772;28;20032;-86
2022/02/12 11:30:13;;;;;;;10.02;2.47;;;6.40;99.90;;;;;;5055850;28;20016;-89
2022/02/12 11:32:43;;;;;;;9.32;2.80;;;6.70;99.90;;;;;;5055784;28;20110;-88
2022/02/12 11:35:09;;;;;;;8.23;2.72;;;6.70;99.50;;;;;;5052577;28;20499;-88
2022/02/12 11:37:44;;;;;;;13.38;3.47;;;6.70;99.00;;;;;;5056982;28;20141;-90
2022/02/12 11:40:13;;;;;;;13.38;2.92;;;6.80;99.90;;;;;;5050381;28;20107;-88
2022/02/12 11:42:47;;;;;;;9.85;2.55;;;7.00;99.70;;;;;;5052733;28;20031;-90
2022/02/12 11:45:29;;;;;;;13.20;2.75;;;7.10;99.70;;;;;;5035814;28;20127;-89
2022/02/12 11:48:26;;;;;;;10.48;2.95;;;7.20;99.40;;;;;;5047971;28;20136;-90
2022/02/12 11:50:54;;;;;;;7.68;3.00;;;7.40;99.70;;;;;;5057428;28;20021;-90
2022/02/12 11:53:43;;;;;;;10.43;2.25;;;7.50;98.30;;;;;;5061923;28;20086;-91
2022/02/12 11:56:18;;;;;;;10.40;2.70;;;7.60;97.70;;;;;;5041648;28;20017;-90
2022/02/12 11:58:44;;;;;;;13.23;3.00;;;7.70;97.00;;;;;;5058239;28;20082;-90
2022/02/12 12:01:25;;;;;;;8.98;2.72;;;7.70;95.30;;;;;;5045106;28;20029;-90
2022/02/12 12:04:15;;;;;;;9.77;2.80;;;7.80;96.30;;;;;;5056110;28;20516;-90
2022/02/12 12:07:02;;;;;;;11.23;3.13;;;7.90;96.70;;;;;;5070771;28;20029;-89
2022/02/12 12:09:33;;;;;;;9.15;2.45;;;8.00;96.00;;;;;;5053429;28;20027;-88
2022/02/12 12:12:12;;;;;;;11.68;2.92;;;8.00;94.90;;;;;;5050405;28;20031;-88
2022/02/12 12:14:41;;;;;;;14.75;2.80;;;8.00;94.90;;;;;;5041748;28;20052;-86
2022/02/12 12:17:09;;;;;;;9.35;2.40;;;8.10;95.40;;;;;;5054976;28;20111;-86
2022/02/12 12:19:39;;;;;;;12.95;3.05;;;8.20;93.60;;;;;;5054895;28;20020;-86
2022/02/12 12:22:18;;;;;;;8.32;2.72;;;8.20;92.70;;;;;;5045097;28;20060;-86
2022/02/12 12:24:43;;;;;;;14.10;2.85;;;8.20;93.00;;;;;;5061988;28;20025;-86
2022/02/12 12:27:16;;;;;;;10.63;2.45;;;8.20;92.00;;;;;;5058761;28;20064;-85
2022/02/12 12:32:34;;;;;;;11.98;2.65;;;8.30;91.60;;;;;;5084724;28;20066;-87
2022/02/12 12:35:07;;;;;;;13.90;3.28;;;8.30;90.70;;;;;;5064552;28;20036;-88
2022/02/12 12:37:57;;;;;;;9.38;2.65;;;8.40;91.90;;;;;;5065324;28;20016;-86
2022/02/12 12:40:30;;;;;;;7.40;2.15;;;8.50;90.60;;;;;;5070356;28;20028;-87
2022/02/12 12:43:08;;;;;;;7.15;2.33;;;8.50;91.30;;;;;;5061696;28;20029;-88
2022/02/12 12:45:41;;;;;;;10.60;2.45;;;8.60;89.30;;;;;;5059985;28;20097;-87
2022/02/12 12:48:07;;;;;;;8.43;2.67;;;8.70;89.30;;;;;;5043678;28;20063;-89
2022/02/12 12:50:38;;;;;;;9.55;2.30;;;8.70;87.70;;;;;;5059855;28;20464;-90
2022/02/12 12:53:09;;;;;;;8.02;1.85;;;8.70;82.40;;;;;;5060342;28;20032;-89
2022/02/12 12:55:36;;;;;;;8.45;2.55;;;8.80;75.70;;;;;;5046587;28;20032;-90
2022/02/12 12:58:12;;;;;;;10.23;2.20;;;8.80;75.10;;;;;;5059674;28;20039;-90
2022/02/12 13:00:38;;;;;;;10.50;1.80;;;8.80;79.20;;;;;;5060195;28;20027;-90
2022/02/12 13:03:04;;;;;;;12.73;2.53;;;8.90;77.20;;;;;;5059913;28;20028;-90
2022/02/12 13:05:31;;;;;;;7.47;2.60;;;9.00;74.90;;;;;;5059645;28;20472;-89